sensor_id;sensor_type;location;lat;lon;timestamp;P1;durP1;ratioP1;P2;durP2;ratioP2
5077;SDS011;2557;51.390;7.494;2022-08-01T00:01:02;12.00;;;10.80;;
5077;SDS011;2557;51.390;7.494;2022-08-01T00:03:28;11.07;;;9.30;;
5077;SDS011;2557;51.390;7.494;2022-08-01T00:05:54;12.30;;;9.73;;
5077;SDS011;2557;51.390;7.494;2022-08-01T00:08:20;12.90;;;10.20;;
5077;SDS011;2557;51.390;7.494;2022-08-01T00:10:46;11.13;;;10.03;;
5077;SDS011;2557;51.390;7.494;2022-08-01T00:13:12;12.70;;;10.73;;
5077;SDS011;2557;51.390;7.494;2022-08-01T00:15:38;13.97;;;12.63;;
5077;SDS011;2557;51.390;7.494;2022-08-01T00:18:04;11.93;;;10.83;;
5077;SDS011;2557;51.390;7.494;2022-08-01T00:20:30;11.63;;;10.57;;
5077;SDS011;2557;51.390;7.494;2022-08-01T00:22:56;12.10;;;10.80;;
5077;SDS011;2557;51.390;7.494;2022-08-01T00:25:22;13.77;;;12.50;;
5077;SDS011;2557;51.390;7.494;2022-08-01T00:27:48;14.87;;;13.50;;
5077;SDS011;2557;51.390;7.494;2022-08-01T00:30:14;15.23;;;13.73;;
5077;SDS011;2557;51.390;7.494;2022-08-01T00:32:41;15.23;;;13.37;;
5077;SDS011;2557;51.390;7.494;2022-08-01T00:35:07;15.57;;;13.90;;
5077;SDS011;2557;51.390;7.494;2022-08-01T00:37:33;16.90;;;15.30;;
5077;SDS011;2557;51.390;7.494;2022-08-01T00:39:59;23.10;;;17.63;;
5077;SDS011;2557;51.390;7.494;2022-08-01T00:42:25;20.10;;;18.03;;
5077;SDS011;2557;51.390;7.494;2022-08-01T00:44:51;18.37;;;16.57;;
5077;SDS011;2557;51.390;7.494;2022-08-01T00:47:17;24.53;;;18.97;;
5077;SDS011;2557;51.390;7.494;2022-08-01T00:49:43;18.87;;;16.87;;
5077;SDS011;2557;51.390;7.494;2022-08-01T00:52:09;18.93;;;16.93;;
5077;SDS011;2557;51.390;7.494;2022-08-01T00:54:35;19.73;;;17.73;;
5077;SDS011;2557;51.390;7.494;2022-08-01T00:57:01;20.53;;;18.30;;
5077;SDS011;2557;51.390;7.494;2022-08-01T00:59:28;19.80;;;17.90;;
5077;SDS011;2557;51.390;7.494;2022-08-01T01:01:54;21.27;;;17.90;;
5077;SDS011;2557;51.390;7.494;2022-08-01T01:04:20;18.97;;;16.90;;
5077;SDS011;2557;51.390;7.494;2022-08-01T01:06:57;19.77;;;17.67;;
5077;SDS011;2557;51.390;7.494;2022-08-01T01:09:34;19.47;;;17.23;;
5077;SDS011;2557;51.390;7.494;2022-08-01T01:12:25;18.17;;;16.27;;
5077;SDS011;2557;51.390;7.494;2022-08-01T01:17:32;21.37;;;19.07;;
5077;SDS011;2557;51.390;7.494;2022-08-01T01:19:59;22.10;;;19.80;;
5077;SDS011;2557;51.390;7.494;2022-08-01T01:25:02;28.07;;;22.00;;
5077;SDS011;2557;51.390;7.494;2022-08-01T01:27:36;24.00;;;21.07;;
5077;SDS011;2557;51.390;7.494;2022-08-01T01:30:05;26.50;;;22.70;;
5077;SDS011;2557;51.390;7.494;2022-08-01T01:32:32;33.10;;;24.03;;
5077;SDS011;2557;51.390;7.494;2022-08-01T01:35:00;27.83;;;23.43;;
5077;SDS011;2557;51.390;7.494;2022-08-01T01:37:27;27.17;;;23.27;;
5077;SDS011;2557;51.390;7.494;2022-08-01T01:39:54;26.70;;;22.97;;
5077;SDS011;2557;51.390;7.494;2022-08-01T01:42:20;27.27;;;23.80;;
5077;SDS011;2557;51.390;7.494;2022-08-01T01:44:46;31.93;;;24.77;;
5077;SDS011;2557;51.390;7.494;2022-08-01T01:47:13;29.97;;;25.33;;
5077;SDS011;2557;51.390;7.494;2022-08-01T01:49:41;30.90;;;24.60;;
5077;SDS011;2557;51.390;7.494;2022-08-01T01:52:07;26.10;;;23.30;;
5077;SDS011;2557;51.390;7.494;2022-08-01T01:54:36;29.27;;;24.60;;
5077;SDS011;2557;51.390;7.494;2022-08-01T01:57:03;30.23;;;24.10;;
5077;SDS011;2557;51.390;7.494;2022-08-01T01:59:30;28.83;;;23.70;;
5077;SDS011;2557;51.390;7.494;2022-08-01T02:01:58;34.80;;;26.57;;
5077;SDS011;2557;51.390;7.494;2022-08-01T02:04:25;30.77;;;27.47;;
5077;SDS011;2557;51.390;7.494;2022-08-01T02:06:52;28.17;;;25.20;;
5077;SDS011;2557;51.390;7.494;2022-08-01T02:09:19;33.50;;;25.43;;
5077;SDS011;2557;51.390;7.494;2022-08-01T02:11:46;29.07;;;25.97;;
5077;SDS011;2557;51.390;7.494;2022-08-01T02:14:13;28.33;;;25.27;;
5077;SDS011;2557;51.390;7.494;2022-08-01T02:16:40;31.37;;;24.53;;
5077;SDS011;2557;51.390;7.494;2022-08-01T02:19:07;27.60;;;24.07;;
5077;SDS011;2557;51.390;7.494;2022-08-01T02:21:35;31.23;;;25.53;;
5077;SDS011;2557;51.390;7.494;2022-08-01T02:24:05;33.47;;;26.93;;
5077;SDS011;2557;51.390;7.494;2022-08-01T02:26:33;28.37;;;24.47;;
5077;SDS011;2557;51.390;7.494;2022-08-01T02:29:01;30.40;;;24.20;;
5077;SDS011;2557;51.390;7.494;2022-08-01T02:31:28;30.37;;;24.60;;
5077;SDS011;2557;51.390;7.494;2022-08-01T02:33:57;30.07;;;24.63;;
5077;SDS011;2557;51.390;7.494;2022-08-01T02:36:25;29.27;;;26.10;;
5077;SDS011;2557;51.390;7.494;2022-08-01T02:38:52;29.93;;;26.67;;
5077;SDS011;2557;51.390;7.494;2022-08-01T02:41:20;30.10;;;26.37;;
5077;SDS011;2557;51.390;7.494;2022-08-01T02:43:48;30.43;;;26.30;;
5077;SDS011;2557;51.390;7.494;2022-08-01T02:46:16;28.83;;;25.30;;
5077;SDS011;2557;51.390;7.494;2022-08-01T02:48:43;26.67;;;23.80;;
5077;SDS011;2557;51.390;7.494;2022-08-01T02:51:10;26.87;;;23.40;;
5077;SDS011;2557;51.390;7.494;2022-08-01T02:53:37;28.53;;;25.43;;
5077;SDS011;2557;51.390;7.494;2022-08-01T02:56:04;28.13;;;24.67;;
5077;SDS011;2557;51.390;7.494;2022-08-01T02:58:31;39.30;;;26.27;;
5077;SDS011;2557;51.390;7.494;2022-08-01T03:00:58;28.90;;;24.53;;
5077;SDS011;2557;51.390;7.494;2022-08-01T03:03:24;29.83;;;24.13;;
5077;SDS011;2557;51.390;7.494;2022-08-01T03:05:50;33.47;;;26.33;;
5077;SDS011;2557;51.390;7.494;2022-08-01T03:08:16;35.57;;;28.27;;
5077;SDS011;2557;51.390;7.494;2022-08-01T03:10:44;30.00;;;24.83;;
5077;SDS011;2557;51.390;7.494;2022-08-01T03:13:11;31.57;;;26.77;;
5077;SDS011;2557;51.390;7.494;2022-08-01T03:15:39;33.50;;;26.33;;
5077;SDS011;2557;51.390;7.494;2022-08-01T03:18:06;38.27;;;28.20;;
5077;SDS011;2557;51.390;7.494;2022-08-01T03:20:33;35.63;;;27.57;;
5077;SDS011;2557;51.390;7.494;2022-08-01T03:23:01;28.70;;;25.40;;
5077;SDS011;2557;51.390;7.494;2022-08-01T03:25:28;33.07;;;26.27;;
5077;SDS011;2557;51.390;7.494;2022-08-01T03:27:55;34.90;;;27.67;;
5077;SDS011;2557;51.390;7.494;2022-08-01T03:30:23;34.73;;;27.50;;
5077;SDS011;2557;51.390;7.494;2022-08-01T03:32:49;35.13;;;27.23;;
5077;SDS011;2557;51.390;7.494;2022-08-01T03:35:15;35.97;;;27.87;;
5077;SDS011;2557;51.390;7.494;2022-08-01T03:37:43;38.73;;;29.77;;
5077;SDS011;2557;51.390;7.494;2022-08-01T03:42:37;39.67;;;27.40;;
5077;SDS011;2557;51.390;7.494;2022-08-01T03:45:06;34.17;;;29.47;;
5077;SDS011;2557;51.390;7.494;2022-08-01T03:47:34;36.47;;;28.90;;
5077;SDS011;2557;51.390;7.494;2022-08-01T03:50:04;40.87;;;30.00;;
5077;SDS011;2557;51.390;7.494;2022-08-01T03:52:31;36.20;;;31.13;;
5077;SDS011;2557;51.390;7.494;2022-08-01T03:54:58;37.97;;;26.87;;
5077;SDS011;2557;51.390;7.494;2022-08-01T03:57:25;39.37;;;31.40;;
5077;SDS011;2557;51.390;7.494;2022-08-01T03:59:53;35.97;;;26.97;;
5077;SDS011;2557;51.390;7.494;2022-08-01T04:02:19;41.93;;;30.47;;
5077;SDS011;2557;51.390;7.494;2022-08-01T04:04:46;40.60;;;29.80;;
5077;SDS011;2557;51.390;7.494;2022-08-01T04:07:25;33.00;;;28.00;;
5077;SDS011;2557;51.390;7.494;2022-08-01T04:09:52;32.17;;;25.37;;
5077;SDS011;2557;51.390;7.494;2022-08-01T04:12:18;34.30;;;27.30;;
5077;SDS011;2557;51.390;7.494;2022-08-01T04:14:44;42.10;;;29.57;;
5077;SDS011;2557;51.390;7.494;2022-08-01T04:17:11;36.37;;;29.50;;
5077;SDS011;2557;51.390;7.494;2022-08-01T04:19:37;41.80;;;30.20;;
5077;SDS011;2557;51.390;7.494;2022-08-01T04:22:03;40.73;;;30.67;;
5077;SDS011;2557;51.390;7.494;2022-08-01T04:24:30;37.37;;;29.93;;
5077;SDS011;2557;51.390;7.494;2022-08-01T04:26:58;42.30;;;30.50;;
5077;SDS011;2557;51.390;7.494;2022-08-01T04:29:26;43.00;;;30.33;;
5077;SDS011;2557;51.390;7.494;2022-08-01T04:31:53;41.30;;;30.93;;
5077;SDS011;2557;51.390;7.494;2022-08-01T04:34:21;44.70;;;30.00;;
5077;SDS011;2557;51.390;7.494;2022-08-01T04:36:48;38.57;;;29.23;;
5077;SDS011;2557;51.390;7.494;2022-08-01T04:39:17;36.90;;;29.50;;
5077;SDS011;2557;51.390;7.494;2022-08-01T04:41:44;40.70;;;30.40;;
5077;SDS011;2557;51.390;7.494;2022-08-01T04:44:11;41.13;;;29.20;;
5077;SDS011;2557;51.390;7.494;2022-08-01T04:46:38;34.33;;;27.87;;
5077;SDS011;2557;51.390;7.494;2022-08-01T04:49:05;34.40;;;27.90;;
5077;SDS011;2557;51.390;7.494;2022-08-01T04:51:33;40.00;;;27.83;;
5077;SDS011;2557;51.390;7.494;2022-08-01T04:53:59;37.10;;;27.27;;
5077;SDS011;2557;51.390;7.494;2022-08-01T04:56:26;30.40;;;24.47;;
5077;SDS011;2557;51.390;7.494;2022-08-01T04:58:52;33.60;;;26.10;;
5077;SDS011;2557;51.390;7.494;2022-08-01T05:01:36;40.27;;;27.17;;
5077;SDS011;2557;51.390;7.494;2022-08-01T05:04:02;28.80;;;24.93;;
5077;SDS011;2557;51.390;7.494;2022-08-01T05:06:28;34.30;;;24.70;;
5077;SDS011;2557;51.390;7.494;2022-08-01T05:08:54;33.43;;;26.53;;
5077;SDS011;2557;51.390;7.494;2022-08-01T05:11:20;33.33;;;25.57;;
5077;SDS011;2557;51.390;7.494;2022-08-01T05:13:47;38.20;;;26.20;;
5077;SDS011;2557;51.390;7.494;2022-08-01T05:16:13;37.83;;;22.97;;
5077;SDS011;2557;51.390;7.494;2022-08-01T05:18:39;34.03;;;25.70;;
5077;SDS011;2557;51.390;7.494;2022-08-01T05:21:05;31.50;;;24.30;;
5077;SDS011;2557;51.390;7.494;2022-08-01T05:23:32;32.77;;;25.57;;
5077;SDS011;2557;51.390;7.494;2022-08-01T05:25:58;32.23;;;24.40;;
5077;SDS011;2557;51.390;7.494;2022-08-01T05:28:24;36.30;;;23.50;;
5077;SDS011;2557;51.390;7.494;2022-08-01T05:30:50;28.63;;;22.37;;
5077;SDS011;2557;51.390;7.494;2022-08-01T05:33:19;32.17;;;24.20;;
5077;SDS011;2557;51.390;7.494;2022-08-01T05:35:46;34.80;;;23.83;;
5077;SDS011;2557;51.390;7.494;2022-08-01T05:38:12;34.70;;;23.77;;
5077;SDS011;2557;51.390;7.494;2022-08-01T05:40:38;28.10;;;23.07;;
5077;SDS011;2557;51.390;7.494;2022-08-01T05:43:04;32.67;;;20.90;;
5077;SDS011;2557;51.390;7.494;2022-08-01T05:45:30;31.23;;;22.90;;
5077;SDS011;2557;51.390;7.494;2022-08-01T05:47:56;28.73;;;22.47;;
5077;SDS011;2557;51.390;7.494;2022-08-01T05:50:22;30.33;;;22.60;;
5077;SDS011;2557;51.390;7.494;2022-08-01T05:52:48;44.83;;;25.50;;
5077;SDS011;2557;51.390;7.494;2022-08-01T05:55:14;30.90;;;21.40;;
5077;SDS011;2557;51.390;7.494;2022-08-01T05:57:40;27.10;;;20.70;;
5077;SDS011;2557;51.390;7.494;2022-08-01T06:00:06;30.30;;;23.47;;
5077;SDS011;2557;51.390;7.494;2022-08-01T06:02:32;34.97;;;22.83;;
5077;SDS011;2557;51.390;7.494;2022-08-01T06:04:58;26.20;;;20.90;;
5077;SDS011;2557;51.390;7.494;2022-08-01T06:07:24;29.40;;;21.23;;
5077;SDS011;2557;51.390;7.494;2022-08-01T06:09:50;27.27;;;19.80;;
5077;SDS011;2557;51.390;7.494;2022-08-01T06:12:16;23.70;;;20.33;;
5077;SDS011;2557;51.390;7.494;2022-08-01T06:14:42;32.23;;;22.33;;
5077;SDS011;2557;51.390;7.494;2022-08-01T06:17:08;27.60;;;20.20;;
5077;SDS011;2557;51.390;7.494;2022-08-01T06:19:34;28.67;;;20.83;;
5077;SDS011;2557;51.390;7.494;2022-08-01T06:22:00;30.13;;;20.47;;
5077;SDS011;2557;51.390;7.494;2022-08-01T06:24:26;27.20;;;20.60;;
5077;SDS011;2557;51.390;7.494;2022-08-01T06:26:52;25.50;;;18.57;;
5077;SDS011;2557;51.390;7.494;2022-08-01T06:29:18;28.37;;;21.23;;
5077;SDS011;2557;51.390;7.494;2022-08-01T06:31:44;23.57;;;18.60;;
5077;SDS011;2557;51.390;7.494;2022-08-01T06:34:10;21.17;;;16.90;;
5077;SDS011;2557;51.390;7.494;2022-08-01T06:36:36;22.87;;;18.70;;
5077;SDS011;2557;51.390;7.494;2022-08-01T06:39:03;23.70;;;17.97;;
5077;SDS011;2557;51.390;7.494;2022-08-01T06:41:29;21.20;;;18.50;;
5077;SDS011;2557;51.390;7.494;2022-08-01T06:43:55;22.57;;;18.07;;
5077;SDS011;2557;51.390;7.494;2022-08-01T06:46:21;21.60;;;18.40;;
5077;SDS011;2557;51.390;7.494;2022-08-01T06:48:47;22.13;;;18.10;;
5077;SDS011;2557;51.390;7.494;2022-08-01T06:51:13;22.23;;;16.50;;
5077;SDS011;2557;51.390;7.494;2022-08-01T06:53:42;19.23;;;17.07;;
5077;SDS011;2557;51.390;7.494;2022-08-01T06:56:08;18.30;;;15.97;;
5077;SDS011;2557;51.390;7.494;2022-08-01T06:58:34;27.70;;;17.67;;
5077;SDS011;2557;51.390;7.494;2022-08-01T07:01:01;19.43;;;15.40;;
5077;SDS011;2557;51.390;7.494;2022-08-01T07:03:27;17.40;;;14.57;;
5077;SDS011;2557;51.390;7.494;2022-08-01T07:05:53;16.00;;;13.43;;
5077;SDS011;2557;51.390;7.494;2022-08-01T07:08:19;13.37;;;11.97;;
5077;SDS011;2557;51.390;7.494;2022-08-01T07:10:45;13.20;;;11.50;;
5077;SDS011;2557;51.390;7.494;2022-08-01T07:13:11;13.80;;;12.40;;
5077;SDS011;2557;51.390;7.494;2022-08-01T07:15:37;14.03;;;11.53;;
5077;SDS011;2557;51.390;7.494;2022-08-01T07:18:03;14.43;;;11.77;;
5077;SDS011;2557;51.390;7.494;2022-08-01T07:20:29;15.37;;;13.40;;
5077;SDS011;2557;51.390;7.494;2022-08-01T07:22:55;15.77;;;13.83;;
5077;SDS011;2557;51.390;7.494;2022-08-01T07:25:21;16.17;;;14.47;;
5077;SDS011;2557;51.390;7.494;2022-08-01T07:27:47;16.20;;;13.23;;
5077;SDS011;2557;51.390;7.494;2022-08-01T07:30:13;13.90;;;12.07;;
5077;SDS011;2557;51.390;7.494;2022-08-01T07:32:40;13.40;;;11.53;;
5077;SDS011;2557;51.390;7.494;2022-08-01T07:35:06;16.23;;;13.17;;
5077;SDS011;2557;51.390;7.494;2022-08-01T07:37:32;13.57;;;11.97;;
5077;SDS011;2557;51.390;7.494;2022-08-01T07:39:58;13.03;;;10.87;;
5077;SDS011;2557;51.390;7.494;2022-08-01T07:42:24;12.60;;;10.13;;
5077;SDS011;2557;51.390;7.494;2022-08-01T07:44:50;14.63;;;13.10;;
5077;SDS011;2557;51.390;7.494;2022-08-01T07:47:16;13.90;;;12.43;;
5077;SDS011;2557;51.390;7.494;2022-08-01T07:49:42;13.00;;;11.80;;
5077;SDS011;2557;51.390;7.494;2022-08-01T07:52:08;19.23;;;12.10;;
5077;SDS011;2557;51.390;7.494;2022-08-01T07:54:34;11.67;;;10.60;;
5077;SDS011;2557;51.390;7.494;2022-08-01T07:57:00;15.77;;;11.93;;
5077;SDS011;2557;51.390;7.494;2022-08-01T07:59:26;14.97;;;13.67;;
5077;SDS011;2557;51.390;7.494;2022-08-01T08:01:52;13.87;;;12.57;;
5077;SDS011;2557;51.390;7.494;2022-08-01T08:04:18;15.20;;;13.67;;
5077;SDS011;2557;51.390;7.494;2022-08-01T08:06:44;15.87;;;14.37;;
5077;SDS011;2557;51.390;7.494;2022-08-01T08:09:12;15.13;;;13.40;;
5077;SDS011;2557;51.390;7.494;2022-08-01T08:11:39;14.07;;;12.70;;
5077;SDS011;2557;51.390;7.494;2022-08-01T08:14:05;15.10;;;13.60;;
5077;SDS011;2557;51.390;7.494;2022-08-01T08:16:31;13.90;;;12.53;;
5077;SDS011;2557;51.390;7.494;2022-08-01T08:18:57;14.70;;;13.10;;
5077;SDS011;2557;51.390;7.494;2022-08-01T08:21:23;14.53;;;13.23;;
5077;SDS011;2557;51.390;7.494;2022-08-01T08:23:49;15.13;;;13.53;;
5077;SDS011;2557;51.390;7.494;2022-08-01T08:26:34;15.17;;;13.20;;
5077;SDS011;2557;51.390;7.494;2022-08-01T08:29:00;14.43;;;12.90;;
5077;SDS011;2557;51.390;7.494;2022-08-01T08:31:26;12.07;;;10.97;;
5077;SDS011;2557;51.390;7.494;2022-08-01T08:33:52;13.70;;;12.43;;
5077;SDS011;2557;51.390;7.494;2022-08-01T08:36:18;12.33;;;11.03;;
5077;SDS011;2557;51.390;7.494;2022-08-01T08:38:44;9.97;;;8.57;;
5077;SDS011;2557;51.390;7.494;2022-08-01T08:41:10;12.70;;;11.17;;
5077;SDS011;2557;51.390;7.494;2022-08-01T08:43:36;10.07;;;8.90;;
5077;SDS011;2557;51.390;7.494;2022-08-01T08:46:02;5.67;;;5.27;;
5077;SDS011;2557;51.390;7.494;2022-08-01T08:48:29;6.80;;;6.20;;
5077;SDS011;2557;51.390;7.494;2022-08-01T08:50:55;6.47;;;5.83;;
5077;SDS011;2557;51.390;7.494;2022-08-01T08:53:21;6.43;;;5.90;;
5077;SDS011;2557;51.390;7.494;2022-08-01T08:55:47;6.40;;;5.27;;
5077;SDS011;2557;51.390;7.494;2022-08-01T08:58:13;5.20;;;4.80;;
5077;SDS011;2557;51.390;7.494;2022-08-01T09:00:40;6.77;;;6.17;;
5077;SDS011;2557;51.390;7.494;2022-08-01T09:03:07;7.13;;;6.43;;
5077;SDS011;2557;51.390;7.494;2022-08-01T09:05:33;5.37;;;5.00;;
5077;SDS011;2557;51.390;7.494;2022-08-01T09:07:59;5.40;;;4.90;;
5077;SDS011;2557;51.390;7.494;2022-08-01T09:10:25;6.00;;;5.50;;
5077;SDS011;2557;51.390;7.494;2022-08-01T09:13:10;5.60;;;5.10;;
5077;SDS011;2557;51.390;7.494;2022-08-01T09:15:38;5.33;;;4.90;;
5077;SDS011;2557;51.390;7.494;2022-08-01T09:18:04;4.90;;;4.50;;
5077;SDS011;2557;51.390;7.494;2022-08-01T09:20:31;5.40;;;5.00;;
5077;SDS011;2557;51.390;7.494;2022-08-01T09:22:59;5.20;;;4.70;;
5077;SDS011;2557;51.390;7.494;2022-08-01T09:25:26;4.03;;;3.83;;
5077;SDS011;2557;51.390;7.494;2022-08-01T09:28:04;3.10;;;2.90;;
5077;SDS011;2557;51.390;7.494;2022-08-01T09:30:32;5.83;;;5.33;;
5077;SDS011;2557;51.390;7.494;2022-08-01T09:33:02;4.20;;;3.90;;
5077;SDS011;2557;51.390;7.494;2022-08-01T09:35:29;3.10;;;2.90;;
5077;SDS011;2557;51.390;7.494;2022-08-01T09:40:51;6.40;;;3.97;;
5077;SDS011;2557;51.390;7.494;2022-08-01T09:43:19;4.20;;;3.80;;
5077;SDS011;2557;51.390;7.494;2022-08-01T09:45:45;4.40;;;4.07;;
5077;SDS011;2557;51.390;7.494;2022-08-01T09:48:12;3.80;;;3.50;;
5077;SDS011;2557;51.390;7.494;2022-08-01T09:50:38;6.40;;;4.07;;
5077;SDS011;2557;51.390;7.494;2022-08-01T09:53:05;4.30;;;4.10;;
5077;SDS011;2557;51.390;7.494;2022-08-01T09:55:31;4.10;;;3.80;;
5077;SDS011;2557;51.390;7.494;2022-08-01T09:57:57;5.07;;;4.67;;
5077;SDS011;2557;51.390;7.494;2022-08-01T10:00:25;5.70;;;5.23;;
5077;SDS011;2557;51.390;7.494;2022-08-01T10:02:51;5.17;;;4.77;;
5077;SDS011;2557;51.390;7.494;2022-08-01T10:05:17;5.20;;;4.80;;
5077;SDS011;2557;51.390;7.494;2022-08-01T10:07:54;6.10;;;5.60;;
5077;SDS011;2557;51.390;7.494;2022-08-01T10:10:21;5.20;;;4.80;;
5077;SDS011;2557;51.390;7.494;2022-08-01T10:12:47;5.90;;;5.50;;
5077;SDS011;2557;51.390;7.494;2022-08-01T10:15:14;7.67;;;6.73;;
5077;SDS011;2557;51.390;7.494;2022-08-01T10:17:41;8.43;;;7.77;;
5077;SDS011;2557;51.390;7.494;2022-08-01T10:20:11;8.73;;;7.93;;
5077;SDS011;2557;51.390;7.494;2022-08-01T10:22:38;8.53;;;7.83;;
5077;SDS011;2557;51.390;7.494;2022-08-01T10:25:04;8.07;;;7.37;;
5077;SDS011;2557;51.390;7.494;2022-08-01T10:27:32;7.53;;;7.00;;
5077;SDS011;2557;51.390;7.494;2022-08-01T10:29:59;6.90;;;6.40;;
5077;SDS011;2557;51.390;7.494;2022-08-01T10:32:30;6.00;;;5.47;;
5077;SDS011;2557;51.390;7.494;2022-08-01T10:34:56;7.07;;;6.57;;
5077;SDS011;2557;51.390;7.494;2022-08-01T10:37:22;5.13;;;4.63;;
5077;SDS011;2557;51.390;7.494;2022-08-01T10:39:48;8.00;;;6.03;;
5077;SDS011;2557;51.390;7.494;2022-08-01T10:42:16;6.03;;;5.43;;
5077;SDS011;2557;51.390;7.494;2022-08-01T10:44:43;5.50;;;5.10;;
5077;SDS011;2557;51.390;7.494;2022-08-01T10:47:14;7.70;;;7.10;;
5077;SDS011;2557;51.390;7.494;2022-08-01T10:52:19;5.07;;;4.60;;
5077;SDS011;2557;51.390;7.494;2022-08-01T10:54:45;4.43;;;4.13;;
5077;SDS011;2557;51.390;7.494;2022-08-01T10:57:11;3.90;;;3.70;;
5077;SDS011;2557;51.390;7.494;2022-08-01T10:59:48;4.53;;;4.23;;
5077;SDS011;2557;51.390;7.494;2022-08-01T11:02:27;5.03;;;4.63;;
5077;SDS011;2557;51.390;7.494;2022-08-01T11:04:55;7.50;;;5.00;;
5077;SDS011;2557;51.390;7.494;2022-08-01T11:07:24;4.60;;;4.40;;
5077;SDS011;2557;51.390;7.494;2022-08-01T11:12:45;4.37;;;4.00;;
5077;SDS011;2557;51.390;7.494;2022-08-01T11:17:38;4.50;;;4.20;;
5077;SDS011;2557;51.390;7.494;2022-08-01T11:20:10;4.50;;;4.20;;
5077;SDS011;2557;51.390;7.494;2022-08-01T11:25:20;3.93;;;3.70;;
5077;SDS011;2557;51.390;7.494;2022-08-01T11:27:46;5.40;;;4.60;;
5077;SDS011;2557;51.390;7.494;2022-08-01T11:32:46;3.43;;;3.13;;
5077;SDS011;2557;51.390;7.494;2022-08-01T11:35:12;3.80;;;2.70;;
5077;SDS011;2557;51.390;7.494;2022-08-01T11:37:38;2.83;;;2.60;;
5077;SDS011;2557;51.390;7.494;2022-08-01T11:42:42;2.27;;;1.70;;
5077;SDS011;2557;51.390;7.494;2022-08-01T11:45:08;1.83;;;1.73;;
5077;SDS011;2557;51.390;7.494;2022-08-01T11:47:50;1.67;;;1.57;;
5077;SDS011;2557;51.390;7.494;2022-08-01T11:52:59;2.30;;;1.93;;
5077;SDS011;2557;51.390;7.494;2022-08-01T11:55:26;1.83;;;1.70;;
5077;SDS011;2557;51.390;7.494;2022-08-01T11:58:26;1.73;;;1.53;;
5077;SDS011;2557;51.390;7.494;2022-08-01T12:00:54;1.73;;;1.63;;
5077;SDS011;2557;51.390;7.494;2022-08-01T12:03:24;2.00;;;1.67;;
5077;SDS011;2557;51.390;7.494;2022-08-01T12:05:52;1.70;;;1.60;;
5077;SDS011;2557;51.390;7.494;2022-08-01T12:08:31;1.93;;;1.83;;
5077;SDS011;2557;51.390;7.494;2022-08-01T12:11:02;1.77;;;1.67;;
5077;SDS011;2557;51.390;7.494;2022-08-01T12:13:38;1.57;;;1.47;;
5077;SDS011;2557;51.390;7.494;2022-08-01T12:16:08;2.23;;;1.57;;
5077;SDS011;2557;51.390;7.494;2022-08-01T12:18:38;1.70;;;1.60;;
5077;SDS011;2557;51.390;7.494;2022-08-01T12:21:05;1.80;;;1.70;;
5077;SDS011;2557;51.390;7.494;2022-08-01T12:23:31;2.00;;;1.90;;
5077;SDS011;2557;51.390;7.494;2022-08-01T12:25:57;2.40;;;1.43;;
5077;SDS011;2557;51.390;7.494;2022-08-01T12:28:25;1.77;;;1.67;;
5077;SDS011;2557;51.390;7.494;2022-08-01T12:30:51;3.17;;;1.60;;
5077;SDS011;2557;51.390;7.494;2022-08-01T12:33:17;1.73;;;1.60;;
5077;SDS011;2557;51.390;7.494;2022-08-01T12:35:44;2.63;;;1.63;;
5077;SDS011;2557;51.390;7.494;2022-08-01T12:38:14;2.80;;;1.80;;
5077;SDS011;2557;51.390;7.494;2022-08-01T12:40:42;3.93;;;1.30;;
5077;SDS011;2557;51.390;7.494;2022-08-01T12:43:08;1.30;;;1.20;;
5077;SDS011;2557;51.390;7.494;2022-08-01T12:45:36;1.40;;;1.30;;
5077;SDS011;2557;51.390;7.494;2022-08-01T12:48:07;2.30;;;1.50;;
5077;SDS011;2557;51.390;7.494;2022-08-01T12:50:33;1.50;;;1.40;;
5077;SDS011;2557;51.390;7.494;2022-08-01T12:53:00;1.77;;;1.50;;
5077;SDS011;2557;51.390;7.494;2022-08-01T12:55:26;1.43;;;1.33;;
5077;SDS011;2557;51.390;7.494;2022-08-01T12:58:06;1.40;;;1.30;;
5077;SDS011;2557;51.390;7.494;2022-08-01T13:00:32;1.10;;;1.00;;
5077;SDS011;2557;51.390;7.494;2022-08-01T13:03:00;1.30;;;1.20;;
5077;SDS011;2557;51.390;7.494;2022-08-01T13:05:26;2.90;;;1.50;;
5077;SDS011;2557;51.390;7.494;2022-08-01T13:07:52;1.33;;;1.23;;
5077;SDS011;2557;51.390;7.494;2022-08-01T13:10:26;1.20;;;1.10;;
5077;SDS011;2557;51.390;7.494;2022-08-01T13:12:53;1.47;;;1.37;;
5077;SDS011;2557;51.390;7.494;2022-08-01T13:15:27;1.83;;;1.40;;
5077;SDS011;2557;51.390;7.494;2022-08-01T13:17:56;2.27;;;1.50;;
5077;SDS011;2557;51.390;7.494;2022-08-01T13:20:29;2.67;;;1.70;;
5077;SDS011;2557;51.390;7.494;2022-08-01T13:23:09;1.53;;;1.43;;
5077;SDS011;2557;51.390;7.494;2022-08-01T13:25:45;1.50;;;1.40;;
5077;SDS011;2557;51.390;7.494;2022-08-01T13:28:18;2.10;;;1.43;;
5077;SDS011;2557;51.390;7.494;2022-08-01T13:30:58;1.50;;;1.40;;
5077;SDS011;2557;51.390;7.494;2022-08-01T13:33:26;1.63;;;1.53;;
5077;SDS011;2557;51.390;7.494;2022-08-01T13:35:53;1.50;;;1.40;;
5077;SDS011;2557;51.390;7.494;2022-08-01T13:38:19;2.70;;;1.43;;
5077;SDS011;2557;51.390;7.494;2022-08-01T13:41:05;1.30;;;1.20;;
5077;SDS011;2557;51.390;7.494;2022-08-01T13:43:31;1.47;;;1.37;;
5077;SDS011;2557;51.390;7.494;2022-08-01T13:45:58;1.70;;;1.60;;
5077;SDS011;2557;51.390;7.494;2022-08-01T13:48:24;1.63;;;1.50;;
5077;SDS011;2557;51.390;7.494;2022-08-01T13:50:50;1.87;;;1.77;;
5077;SDS011;2557;51.390;7.494;2022-08-01T13:53:16;1.50;;;1.40;;
5077;SDS011;2557;51.390;7.494;2022-08-01T13:55:42;1.70;;;1.60;;
5077;SDS011;2557;51.390;7.494;2022-08-01T13:58:09;3.20;;;2.20;;
5077;SDS011;2557;51.390;7.494;2022-08-01T14:00:35;2.40;;;1.47;;
5077;SDS011;2557;51.390;7.494;2022-08-01T14:03:01;1.80;;;1.70;;
5077;SDS011;2557;51.390;7.494;2022-08-01T14:05:27;3.37;;;2.07;;
5077;SDS011;2557;51.390;7.494;2022-08-01T14:07:53;2.40;;;1.43;;
5077;SDS011;2557;51.390;7.494;2022-08-01T14:10:19;1.60;;;1.50;;
5077;SDS011;2557;51.390;7.494;2022-08-01T14:12:45;2.40;;;1.57;;
5077;SDS011;2557;51.390;7.494;2022-08-01T14:15:11;2.03;;;1.50;;
5077;SDS011;2557;51.390;7.494;2022-08-01T14:17:37;1.80;;;1.70;;
5077;SDS011;2557;51.390;7.494;2022-08-01T14:20:03;4.20;;;1.70;;
5077;SDS011;2557;51.390;7.494;2022-08-01T14:22:30;1.37;;;1.27;;
5077;SDS011;2557;51.390;7.494;2022-08-01T14:24:56;1.53;;;1.40;;
5077;SDS011;2557;51.390;7.494;2022-08-01T14:27:24;1.70;;;1.60;;
5077;SDS011;2557;51.390;7.494;2022-08-01T14:29:49;1.67;;;1.43;;
5077;SDS011;2557;51.390;7.494;2022-08-01T14:32:15;2.37;;;1.37;;
5077;SDS011;2557;51.390;7.494;2022-08-01T14:34:41;1.60;;;1.50;;
5077;SDS011;2557;51.390;7.494;2022-08-01T14:37:07;1.80;;;1.70;;
5077;SDS011;2557;51.390;7.494;2022-08-01T14:39:33;2.03;;;1.50;;
5077;SDS011;2557;51.390;7.494;2022-08-01T14:41:59;1.67;;;1.57;;
5077;SDS011;2557;51.390;7.494;2022-08-01T14:44:25;2.03;;;1.50;;
5077;SDS011;2557;51.390;7.494;2022-08-01T14:46:51;3.03;;;1.60;;
5077;SDS011;2557;51.390;7.494;2022-08-01T14:49:18;1.70;;;1.60;;
5077;SDS011;2557;51.390;7.494;2022-08-01T14:51:44;2.77;;;2.10;;
5077;SDS011;2557;51.390;7.494;2022-08-01T14:54:10;2.40;;;2.03;;
5077;SDS011;2557;51.390;7.494;2022-08-01T14:56:36;7.40;;;1.90;;
5077;SDS011;2557;51.390;7.494;2022-08-01T14:59:02;2.60;;;2.07;;
5077;SDS011;2557;51.390;7.494;2022-08-01T15:01:28;2.20;;;2.00;;
5077;SDS011;2557;51.390;7.494;2022-08-01T15:03:54;1.63;;;1.53;;
5077;SDS011;2557;51.390;7.494;2022-08-01T15:06:21;1.80;;;1.70;;
5077;SDS011;2557;51.390;7.494;2022-08-01T15:08:47;1.83;;;1.73;;
5077;SDS011;2557;51.390;7.494;2022-08-01T15:11:13;2.40;;;2.00;;
5077;SDS011;2557;51.390;7.494;2022-08-01T15:13:40;2.13;;;1.87;;
5077;SDS011;2557;51.390;7.494;2022-08-01T15:16:06;3.40;;;1.80;;
5077;SDS011;2557;51.390;7.494;2022-08-01T15:18:32;3.40;;;2.43;;
5077;SDS011;2557;51.390;7.494;2022-08-01T15:20:58;2.40;;;2.23;;
5077;SDS011;2557;51.390;7.494;2022-08-01T15:23:24;3.40;;;2.77;;
5077;SDS011;2557;51.390;7.494;2022-08-01T15:25:50;2.43;;;2.03;;
5077;SDS011;2557;51.390;7.494;2022-08-01T15:28:16;3.40;;;2.40;;
5077;SDS011;2557;51.390;7.494;2022-08-01T15:30:42;2.43;;;2.33;;